KICT

Wichita Dwight D Eisenhower National Airport

Wichita, Kansas, USA
METAR KICT 170753Z AUTO 16013KT 10SM OVC032 07/06 A2993 RMK AO2 SLP135 T00720056
Observed Flight Rules
Dec-17 @ 07:53 UTC (24 minutes ago) Visual Flight Rules
Wind Visibility Clouds
160° at 13 knots 10 miles
  • Overcast at 3,200' AGL
Temperatures Readings
Current 7°C / 45°F
Dewpoint 6°C / 43°F
Humidity 93%
Altimeter 29.93" Hg
Pressure 1013.5 hPa
Elevation 407
METAR KICT 170753Z AUTO 16013KT 10SM OVC032 07/06 A2993 RMK AO2 SLP135 T00720056
Observed Flight Rules
Dec-17 @ 07:53 UTC
(24 minutes ago)
VFR
Wind Visibility
160° at 13 knots 10 miles
Clouds
  • Overcast at 3,200' AGL
Temperature Dewpoint
7°C / 45°F 6°C / 43°F
Humidity Altimeter Pressure
93% 29.93" Hg 1013.5 hPa